Time;durP1;ratioP1;P1;durP2;ratioP2;P2;SDS_P1;SDS_P2;PMS_P1;PMS_P2;Temp;Humidity;BMP_temperature;BMP_pressure;BME280_temperature;BME280_humidity;BME280_pressure;Samples;Min_cycle;Max_cycle;Signal;HPM_P1;HPM_P2
2022/08/01 00:02:28;;;;;;;4.37;4.17;;;23.90;70.80;;;;;;10470783;28;20263;-79
2022/08/01 00:07:30;;;;;;;4.90;4.60;;;23.90;71.10;;;;;;10467103;28;20233;-79
2022/08/01 00:12:34;;;;;;;4.60;4.40;;;23.90;72.20;;;;;;10467187;28;20238;-79
2022/08/01 00:17:36;;;;;;;4.70;4.50;;;23.90;73.60;;;;;;10460165;28;20373;-79
2022/08/01 00:22:39;;;;;;;4.70;4.50;;;23.90;73.70;;;;;;10457046;28;20217;-80
2022/08/01 00:27:42;;;;;;;5.60;4.37;;;23.90;70.70;;;;;;10460196;28;20217;-79
2022/08/01 00:32:44;;;;;;;4.67;4.37;;;23.80;71.30;;;;;;10454753;28;20227;-78
2022/08/01 00:37:46;;;;;;;5.13;4.73;;;23.80;71.10;;;;;;10460386;28;20217;-79
2022/08/01 00:42:50;;;;;;;4.50;4.20;;;23.70;72.20;;;;;;10463804;28;20764;-78
2022/08/01 00:47:52;;;;;;;4.83;4.53;;;23.70;73.20;;;;;;10462806;28;20213;-80
2022/08/01 00:52:55;;;;;;;4.77;4.57;;;23.70;74.40;;;;;;10461491;28;20221;-78
2022/08/01 00:57:59;;;;;;;4.63;4.43;;;23.60;71.30;;;;;;10458591;28;20213;-79
2022/08/01 01:03:01;;;;;;;4.63;4.33;;;23.60;72.00;;;;;;10457135;28;20806;-79
2022/08/01 01:08:07;;;;;;;5.20;4.90;;;23.50;72.10;;;;;;10456031;28;20275;-79
2022/08/01 01:13:16;;;;;;;4.80;4.60;;;23.50;72.00;;;;;;10460456;28;20193;-78
2022/08/01 01:18:24;;;;;;;5.10;4.80;;;23.50;72.30;;;;;;10455570;28;20271;-80
2022/08/01 01:23:43;;;;;;;4.50;4.30;;;23.50;74.60;;;;;;10460920;28;20688;-79
2022/08/01 01:29:06;;;;;;;5.10;4.80;;;23.50;73.40;;;;;;10487523;28;20264;-80
2022/08/01 01:34:10;;;;;;;5.37;5.07;;;23.50;73.40;;;;;;10473465;28;20204;-79
2022/08/01 01:39:14;;;;;;;4.73;4.53;;;23.40;73.10;;;;;;10475605;28;20209;-79
2022/08/01 01:44:19;;;;;;;5.20;4.90;;;23.40;73.40;;;;;;10481132;28;20231;-79
2022/08/01 01:49:24;;;;;;;5.30;5.00;;;23.40;74.50;;;;;;10485990;28;20200;-78
2022/08/01 01:54:32;;;;;;;5.00;4.80;;;23.40;73.40;;;;;;10473957;28;20744;-79
2022/08/01 01:59:38;;;;;;;5.00;4.70;;;23.30;73.50;;;;;;10473636;28;20293;-78
2022/08/01 02:04:43;;;;;;;4.90;4.60;;;23.30;74.50;;;;;;10484914;28;20224;-79
2022/08/01 02:09:47;;;;;;;5.30;5.10;;;23.30;75.00;;;;;;10486517;28;20577;-78
2022/08/01 02:14:53;;;;;;;4.97;4.77;;;23.20;75.40;;;;;;10487768;28;20213;-79
2022/08/01 02:19:56;;;;;;;5.50;5.20;;;23.10;76.50;;;;;;10483753;28;20313;-78
2022/08/01 02:25:03;;;;;;;5.37;5.07;;;23.10;76.70;;;;;;10492076;28;20220;-79
2022/08/01 02:30:09;;;;;;;5.53;5.17;;;23.00;76.00;;;;;;10479888;28;20201;-78
2022/08/01 02:35:14;;;;;;;5.30;4.90;;;23.00;76.40;;;;;;10481275;28;20216;-79
2022/08/01 02:40:18;;;;;;;4.43;4.23;;;22.90;77.30;;;;;;10485200;28;20216;-79
2022/08/01 02:45:25;;;;;;;5.30;5.10;;;22.90;76.40;;;;;;10489921;28;20240;-79
2022/08/01 02:50:30;;;;;;;5.80;5.40;;;22.80;77.60;;;;;;10482997;28;20190;-79
2022/08/01 02:55:34;;;;;;;5.30;4.90;;;22.80;77.40;;;;;;10483070;28;20315;-78
2022/08/01 03:00:40;;;;;;;5.37;5.07;;;22.80;78.30;;;;;;10472771;28;20211;-79
2022/08/01 03:05:44;;;;;;;5.57;5.27;;;22.70;78.00;;;;;;10475008;28;20665;-80
2022/08/01 03:10:47;;;;;;;6.23;5.93;;;22.70;78.50;;;;;;10487004;28;20224;-79
2022/08/01 03:15:53;;;;;;;5.80;5.30;;;22.60;78.50;;;;;;10496011;28;20236;-78
2022/08/01 03:20:57;;;;;;;5.60;5.20;;;22.60;79.20;;;;;;10494369;28;20225;-78
2022/08/01 03:26:01;;;;;;;4.63;4.33;;;22.60;79.90;;;;;;10474691;28;20606;-79
2022/08/01 03:31:05;;;;;;;6.30;5.90;;;22.60;79.20;;;;;;10476516;28;20285;-78
2022/08/01 03:36:10;;;;;;;6.30;5.80;;;22.60;79.50;;;;;;10478224;28;20304;-79
2022/08/01 03:41:16;;;;;;;5.73;5.43;;;22.50;79.90;;;;;;10492522;28;20274;-78
2022/08/01 03:46:27;;;;;;;6.23;5.93;;;22.50;80.20;;;;;;10479337;28;20220;-78
2022/08/01 03:51:31;;;;;;;5.67;5.37;;;22.40;81.50;;;;;;10481764;28;20669;-79
2022/08/01 03:56:34;;;;;;;5.33;5.07;;;22.40;80.60;;;;;;10484886;28;20232;-79
2022/08/01 04:01:38;;;;;;;6.00;5.70;;;22.40;80.70;;;;;;10484301;28;20236;-79
2022/08/01 04:06:41;;;;;;;6.83;6.43;;;22.40;81.60;;;;;;10473144;28;20675;-79
2022/08/01 04:11:43;;;;;;;5.67;5.37;;;22.40;82.10;;;;;;10497403;28;20260;-78
2022/08/01 04:16:46;;;;;;;5.50;5.13;;;22.40;82.90;;;;;;10501420;28;20276;-78
2022/08/01 04:21:49;;;;;;;6.27;5.77;;;22.40;82.30;;;;;;10488962;28;20280;-78
2022/08/01 04:26:52;;;;;;;6.03;5.70;;;22.50;82.60;;;;;;10504497;28;20244;-79
2022/08/01 04:31:57;;;;;;;5.30;5.00;;;22.50;82.80;;;;;;10491994;28;20207;-78
2022/08/01 04:37:02;;;;;;;6.27;5.87;;;22.60;82.40;;;;;;10496103;28;20216;-79
2022/08/01 04:42:05;;;;;;;5.53;5.23;;;22.60;83.20;;;;;;10499098;28;20242;-78
2022/08/01 04:47:10;;;;;;;5.60;5.20;;;22.70;82.50;;;;;;10484401;28;20290;-78
2022/08/01 04:52:13;;;;;;;5.83;5.53;;;22.70;82.70;;;;;;10502178;28;20228;-79
2022/08/01 04:57:15;;;;;;;5.40;5.10;;;22.70;81.30;;;;;;10484564;28;20728;-79
2022/08/01 05:02:19;;;;;;;5.27;4.77;;;22.70;82.40;;;;;;10462393;28;20230;-78
2022/08/01 05:07:21;;;;;;;6.50;5.90;;;22.70;82.60;;;;;;10466462;28;20221;-78
2022/08/01 05:12:24;;;;;;;5.43;5.00;;;22.60;82.70;;;;;;10467836;28;20201;-79
2022/08/01 05:17:27;;;;;;;5.67;5.33;;;22.60;83.30;;;;;;10467467;28;20214;-78
2022/08/01 05:22:29;;;;;;;5.10;4.90;;;22.70;84.30;;;;;;10489463;28;20647;-77
2022/08/01 05:27:31;;;;;;;5.93;5.63;;;22.80;85.90;;;;;;10456029;28;20647;-79
2022/08/01 05:32:35;;;;;;;5.27;4.80;;;23.00;85.80;;;;;;10469927;28;20546;-78
2022/08/01 05:37:37;;;;;;;4.50;4.30;;;23.10;84.70;;;;;;10491127;28;20668;-79
2022/08/01 05:42:39;;;;;;;4.63;4.33;;;23.20;83.80;;;;;;10484807;28;20222;-79
2022/08/01 05:47:42;;;;;;;5.10;4.90;;;23.20;84.40;;;;;;10489794;28;20208;-79
2022/08/01 05:52:44;;;;;;;5.80;5.40;;;23.20;84.50;;;;;;10497204;28;20193;-79
2022/08/01 05:57:47;;;;;;;4.80;4.50;;;23.20;85.00;;;;;;10493140;28;20221;-79
2022/08/01 06:02:50;;;;;;;5.10;4.80;;;23.20;85.30;;;;;;10499870;28;20244;-79
2022/08/01 06:07:52;;;;;;;5.37;5.10;;;23.20;85.80;;;;;;10492304;28;20322;-79
2022/08/01 06:12:55;;;;;;;4.67;4.47;;;23.30;84.90;;;;;;10496337;28;20197;-79
2022/08/01 06:17:59;;;;;;;4.30;4.00;;;23.30;85.30;;;;;;10497537;28;20220;-79
2022/08/01 06:23:01;;;;;;;5.57;5.13;;;23.40;86.40;;;;;;10499469;28;20212;-79
2022/08/01 06:28:04;;;;;;;4.27;4.07;;;23.50;86.10;;;;;;10498645;28;20214;-79
2022/08/01 06:33:08;;;;;;;5.20;4.80;;;23.50;86.60;;;;;;10494649;28;20657;-79
2022/08/01 06:38:10;;;;;;;5.00;4.70;;;23.70;86.20;;;;;;10495504;28;20216;-79
2022/08/01 06:43:12;;;;;;;4.67;4.47;;;23.80;85.10;;;;;;10495719;28;20220;-79
2022/08/01 06:48:16;;;;;;;3.90;3.70;;;23.90;86.20;;;;;;10497603;28;20278;-79
2022/08/01 06:53:18;;;;;;;6.00;4.20;;;23.90;86.00;;;;;;10488385;28;20193;-78
2022/08/01 06:58:20;;;;;;;4.47;4.27;;;24.10;85.00;;;;;;10493670;28;20220;-78
2022/08/01 07:03:23;;;;;;;4.07;3.87;;;24.20;84.50;;;;;;10498116;28;20255;-78
2022/08/01 07:08:25;;;;;;;4.97;4.70;;;24.20;84.20;;;;;;10496987;28;20303;-79
2022/08/01 07:13:30;;;;;;;4.50;4.30;;;24.30;83.50;;;;;;10498589;28;20869;-79
2022/08/01 07:18:33;;;;;;;4.83;4.63;;;24.50;83.00;;;;;;10492459;28;20220;-78
2022/08/01 07:23:36;;;;;;;5.20;5.00;;;24.90;83.90;;;;;;10495462;28;20279;-79
2022/08/01 07:28:38;;;;;;;5.10;4.90;;;25.10;83.00;;;;;;10491777;28;20213;-79
2022/08/01 07:33:41;;;;;;;5.13;4.93;;;25.40;82.10;;;;;;10490509;28;20742;-79
2022/08/01 07:38:43;;;;;;;5.50;4.80;;;25.50;81.50;;;;;;10497290;28;20224;-79
2022/08/01 07:43:47;;;;;;;5.43;5.00;;;25.80;81.60;;;;;;10477455;28;20606;-78
2022/08/01 07:48:50;;;;;;;4.70;4.50;;;26.10;78.70;;;;;;10476167;28;20217;-78
2022/08/01 07:53:52;;;;;;;4.70;4.43;;;26.40;77.60;;;;;;10502119;28;20356;-79
2022/08/01 07:58:54;;;;;;;5.37;5.17;;;26.70;77.10;;;;;;10506254;28;20678;-79
2022/08/01 08:03:58;;;;;;;5.80;5.40;;;27.20;77.00;;;;;;10506905;28;20699;-79
2022/08/01 08:09:00;;;;;;;5.57;5.17;;;27.70;75.00;;;;;;10501005;28;20716;-79
2022/08/01 08:14:02;;;;;;;5.77;5.47;;;27.80;73.40;;;;;;10500325;28;20244;-79
2022/08/01 08:19:06;;;;;;;5.63;5.33;;;27.90;74.10;;;;;;10501709;28;20224;-79
2022/08/01 08:24:21;;;;;;;5.50;5.30;;;28.00;73.40;;;;;;10491415;28;20220;-78
2022/08/01 08:29:24;;;;;;;5.80;5.50;;;28.50;72.70;;;;;;10498945;28;20200;-79
2022/08/01 08:34:29;;;;;;;5.50;5.27;;;28.80;71.50;;;;;;10499620;28;20603;-79
2022/08/01 08:39:31;;;;;;;4.47;4.20;;;29.20;71.00;;;;;;10501291;28;20198;-79
2022/08/01 08:44:33;;;;;;;6.37;5.73;;;29.60;68.40;;;;;;10503066;28;20232;-79
2022/08/01 08:49:38;;;;;;;6.27;5.87;;;29.70;69.10;;;;;;10504149;28;20208;-79
2022/08/01 08:54:43;;;;;;;5.30;4.90;;;30.00;68.10;;;;;;10491130;28;20576;-79
2022/08/01 08:59:46;;;;;;;4.83;4.53;;;30.40;68.20;;;;;;10470099;28;20209;-80
2022/08/01 09:04:50;;;;;;;5.87;5.47;;;30.50;67.00;;;;;;10477216;28;20255;-80
2022/08/01 09:09:52;;;;;;;6.20;5.90;;;30.20;68.60;;;;;;10486234;28;20201;-79
2022/08/01 09:14:54;;;;;;;5.30;5.00;;;29.80;68.50;;;;;;10484743;28;20226;-79
2022/08/01 09:19:57;;;;;;;7.50;7.07;;;29.70;69.50;;;;;;10501401;28;20283;-79
2022/08/01 09:25:02;;;;;;;7.97;7.23;;;29.60;69.70;;;;;;10499208;28;20248;-79
2022/08/01 09:30:13;;;;;;;8.37;7.77;;;29.50;70.20;;;;;;10500507;28;20295;-78
2022/08/01 09:35:28;;;;;;;9.03;8.20;;;29.40;70.10;;;;;;10490921;28;20248;-79
2022/08/01 09:40:45;;;;;;;10.37;9.57;;;29.40;69.10;;;;;;10497623;28;20228;-79
2022/08/01 09:45:48;;;;;;;9.47;8.87;;;29.40;70.30;;;;;;10490969;28;20245;-79
2022/08/01 09:50:53;;;;;;;7.40;6.90;;;29.60;69.70;;;;;;10495824;28;20255;-79
2022/08/01 09:55:55;;;;;;;8.57;7.97;;;30.00;68.30;;;;;;10499113;28;20312;-79
2022/08/01 10:01:01;;;;;;;8.10;7.50;;;30.40;67.10;;;;;;10498038;28;20204;-79
2022/08/01 10:06:20;;;;;;;8.10;7.60;;;30.30;66.30;;;;;;10497563;28;20669;-79
2022/08/01 10:11:23;;;;;;;7.17;6.77;;;30.20;67.40;;;;;;10484563;28;20201;-79
2022/08/01 10:16:27;;;;;;;7.80;7.30;;;30.20;67.10;;;;;;10498898;28;20227;-79
2022/08/01 10:21:33;;;;;;;8.30;7.70;;;30.20;68.20;;;;;;10493556;28;20247;-79
2022/08/01 10:26:37;;;;;;;7.70;7.30;;;30.10;66.60;;;;;;10493994;28;20213;-79
2022/08/01 10:31:39;;;;;;;9.07;8.23;;;30.00;67.60;;;;;;10491922;28;20196;-79
2022/08/01 10:36:42;;;;;;;7.70;7.20;;;29.80;67.50;;;;;;10495991;28;20213;-79
2022/08/01 10:41:45;;;;;;;6.80;6.30;;;29.50;68.40;;;;;;10491271;28;20633;-79
2022/08/01 10:46:51;;;;;;;6.13;5.73;;;29.20;67.90;;;;;;10499238;28;20219;-79
2022/08/01 10:51:55;;;;;;;6.27;5.87;;;29.10;68.40;;;;;;10504674;28;20593;-79
2022/08/01 10:57:00;;;;;;;5.80;5.50;;;29.00;68.50;;;;;;10493192;28;20212;-79
2022/08/01 11:02:05;;;;;;;5.97;5.67;;;28.70;68.20;;;;;;10477785;28;20205;-79
2022/08/01 11:07:12;;;;;;;7.50;7.10;;;28.50;69.30;;;;;;10499103;28;20308;-79
2022/08/01 11:12:16;;;;;;;7.03;6.70;;;28.30;69.20;;;;;;10502060;28;20196;-78
2022/08/01 11:17:32;;;;;;;6.87;6.47;;;28.20;70.10;;;;;;10499558;28;20651;-79
2022/08/01 11:23:16;;;;;;;6.10;5.80;;;28.30;69.70;;;;;;10487525;28;20291;-79
2022/08/01 11:28:20;;;;;;;6.57;6.20;;;28.40;70.30;;;;;;10500604;28;20216;-79
2022/08/01 11:33:49;;;;;;;6.87;6.43;;;28.30;69.70;;;;;;10505896;28;20279;-79
2022/08/01 11:39:18;;;;;;;6.10;5.67;;;28.30;69.30;;;;;;10506203;28;20294;-79
2022/08/01 11:44:28;;;;;;;6.23;5.83;;;28.40;68.30;;;;;;10498657;28;20831;-80
2022/08/01 11:49:34;;;;;;;5.70;5.40;;;28.40;68.90;;;;;;10488121;28;20200;-80
2022/08/01 11:54:40;;;;;;;6.80;6.40;;;28.50;69.00;;;;;;10503373;28;20212;-79
2022/08/01 11:59:45;;;;;;;6.37;6.07;;;28.50;68.50;;;;;;10503293;28;20200;-79
2022/08/01 12:04:50;;;;;;;5.80;5.50;;;28.50;68.70;;;;;;10505584;28;20284;-78
2022/08/01 12:10:01;;;;;;;6.83;6.23;;;28.70;68.00;;;;;;10502643;28;20205;-79
2022/08/01 12:15:05;;;;;;;6.20;5.90;;;28.60;67.50;;;;;;10499937;28;20243;-79
2022/08/01 12:20:10;;;;;;;6.60;6.20;;;28.40;68.00;;;;;;10497089;28;20212;-79
2022/08/01 12:25:15;;;;;;;5.60;5.30;;;28.30;68.80;;;;;;10502653;28;20582;-79
2022/08/01 12:30:19;;;;;;;5.93;5.63;;;28.30;67.00;;;;;;10504355;28;20232;-79
2022/08/01 12:35:22;;;;;;;5.93;5.60;;;28.20;67.10;;;;;;10499200;28;20284;-79
2022/08/01 12:40:28;;;;;;;6.50;5.90;;;28.10;68.70;;;;;;10502860;28;20283;-79
2022/08/01 12:45:35;;;;;;;5.40;5.10;;;28.00;68.90;;;;;;10486353;28;20252;-79
2022/08/01 12:50:39;;;;;;;6.00;5.70;;;28.00;68.60;;;;;;10502504;28;20211;-78
2022/08/01 12:55:48;;;;;;;6.00;5.60;;;28.10;70.10;;;;;;10493575;28;20677;-78
2022/08/01 13:01:02;;;;;;;6.00;5.70;;;28.00;68.90;;;;;;10497936;28;20200;-79
2022/08/01 13:06:12;;;;;;;6.30;6.00;;;27.90;69.70;;;;;;10495307;28;20236;-79
2022/08/01 13:11:18;;;;;;;5.80;5.40;;;27.90;71.00;;;;;;10473652;28;20603;-79
2022/08/01 13:16:23;;;;;;;5.90;5.63;;;28.00;68.30;;;;;;10464774;28;20670;-80
2022/08/01 13:21:27;;;;;;;6.13;5.83;;;28.20;69.50;;;;;;10471567;28;20258;-80
2022/08/01 13:26:45;;;;;;;5.77;5.37;;;28.20;70.00;;;;;;10460548;28;20296;-80
2022/08/01 13:31:47;;;;;;;6.03;5.63;;;28.20;70.40;;;;;;10469504;28;20562;-80
2022/08/01 13:36:50;;;;;;;5.17;4.87;;;28.20;68.50;;;;;;10479222;28;20226;-80
2022/08/01 13:41:53;;;;;;;6.10;5.80;;;28.20;68.50;;;;;;10462156;28;20212;-81
2022/08/01 13:46:56;;;;;;;6.00;5.70;;;28.10;70.50;;;;;;10480897;28;20282;-79
2022/08/01 13:51:59;;;;;;;3.87;3.57;;;28.10;68.90;;;;;;10480787;28;20192;-80
2022/08/01 13:57:02;;;;;;;6.20;5.90;;;28.20;68.70;;;;;;10483988;28;20243;-80
2022/08/01 14:02:04;;;;;;;5.43;5.03;;;28.50;68.70;;;;;;10465820;28;20270;-81
2022/08/01 14:07:06;;;;;;;4.90;4.20;;;28.50;69.20;;;;;;10493038;28;20286;-80
2022/08/01 14:12:10;;;;;;;5.47;5.27;;;28.60;66.90;;;;;;10473284;28;20250;-79
2022/08/01 14:17:12;;;;;;;5.03;4.73;;;28.60;68.00;;;;;;10480086;28;20273;-79
2022/08/01 14:22:14;;;;;;;5.70;5.40;;;28.60;68.00;;;;;;10493403;28;20719;-79
2022/08/01 14:27:18;;;;;;;5.70;5.40;;;28.60;68.10;;;;;;10478151;28;20220;-80
2022/08/01 14:32:20;;;;;;;4.30;4.10;;;28.50;67.70;;;;;;10474500;28;20189;-79
2022/08/01 14:37:23;;;;;;;3.70;3.50;;;28.50;67.50;;;;;;10488725;28;20224;-79
2022/08/01 14:42:26;;;;;;;4.10;3.90;;;28.60;67.50;;;;;;10465473;28;20213;-78
2022/08/01 14:47:28;;;;;;;5.77;5.37;;;28.70;66.70;;;;;;10454477;28;20307;-78
2022/08/01 14:52:31;;;;;;;4.07;3.87;;;28.90;66.90;;;;;;10460268;28;20220;-79
2022/08/01 14:57:36;;;;;;;7.33;5.43;;;29.00;67.30;;;;;;10458903;28;20213;-79
2022/08/01 15:02:38;;;;;;;5.80;5.50;;;29.10;66.00;;;;;;10462856;28;20628;-80
2022/08/01 15:07:40;;;;;;;6.50;6.00;;;29.00;66.90;;;;;;10485146;28;20229;-79
2022/08/01 15:12:43;;;;;;;4.97;4.67;;;29.00;66.20;;;;;;10475928;28;20217;-79
2022/08/01 15:17:46;;;;;;;5.10;4.80;;;28.90;67.10;;;;;;10465545;28;20703;-79
2022/08/01 15:22:48;;;;;;;5.17;4.83;;;28.90;65.90;;;;;;10467455;28;20227;-79
2022/08/01 15:27:52;;;;;;;4.30;4.10;;;28.80;66.10;;;;;;10445265;28;20697;-80
2022/08/01 15:32:54;;;;;;;5.80;5.40;;;28.70;65.10;;;;;;10475897;28;20216;-79
2022/08/01 15:37:56;;;;;;;5.10;4.90;;;28.70;65.70;;;;;;10474240;28;20270;-80
2022/08/01 15:42:59;;;;;;;5.43;5.03;;;28.60;65.10;;;;;;10462539;28;20213;-81
2022/08/01 15:48:01;;;;;;;7.10;5.10;;;28.50;66.40;;;;;;10471200;28;20246;-82
2022/08/01 15:53:04;;;;;;;4.50;4.30;;;28.50;67.00;;;;;;10480273;28;20224;-82
2022/08/01 15:58:07;;;;;;;4.80;4.60;;;28.50;65.80;;;;;;10476136;28;20224;-80
2022/08/01 16:03:10;;;;;;;3.97;3.77;;;28.50;67.70;;;;;;10489025;28;20231;-81
2022/08/01 16:08:13;;;;;;;4.17;3.87;;;28.40;67.00;;;;;;10490669;28;20751;-82
2022/08/01 16:13:16;;;;;;;3.97;3.67;;;28.40;65.60;;;;;;10506461;28;20193;-82
2022/08/01 16:18:18;;;;;;;3.93;3.63;;;28.30;65.50;;;;;;10499748;28;20216;-82
2022/08/01 16:23:21;;;;;;;5.20;4.90;;;28.30;65.20;;;;;;10504461;28;20216;-81
2022/08/01 16:28:25;;;;;;;4.53;4.33;;;28.30;66.30;;;;;;10509015;28;20238;-81
2022/08/01 16:33:27;;;;;;;4.47;4.17;;;28.30;66.10;;;;;;10512149;28;20239;-79
2022/08/01 16:38:29;;;;;;;4.17;3.97;;;28.20;65.20;;;;;;10484347;28;20216;-80
2022/08/01 16:43:33;;;;;;;4.47;4.27;;;28.20;65.90;;;;;;10498102;28;20217;-79
2022/08/01 16:48:35;;;;;;;5.10;4.80;;;28.10;66.40;;;;;;10490481;28;20645;-80
2022/08/01 16:53:37;;;;;;;4.97;4.60;;;28.00;67.40;;;;;;10488983;28;20545;-80
2022/08/01 16:58:41;;;;;;;4.33;4.13;;;28.00;66.50;;;;;;10481372;28;20707;-80
2022/08/01 17:03:43;;;;;;;4.47;4.20;;;27.90;66.80;;;;;;10493230;28;20299;-80
2022/08/01 17:08:45;;;;;;;4.60;4.20;;;27.90;67.70;;;;;;10481386;28;20294;-79
2022/08/01 17:13:49;;;;;;;3.60;3.50;;;27.80;68.20;;;;;;10449083;28;20567;-80
2022/08/01 17:18:51;;;;;;;3.10;3.00;;;27.80;67.30;;;;;;10477667;28;20221;-79
2022/08/01 17:23:53;;;;;;;4.50;4.30;;;27.70;66.80;;;;;;10469457;28;20594;-79
2022/08/01 17:28:57;;;;;;;4.73;4.43;;;27.70;68.10;;;;;;10478196;28;20249;-79
2022/08/01 17:33:59;;;;;;;3.80;3.60;;;27.60;68.20;;;;;;10470714;28;20193;-79
2022/08/01 17:39:02;;;;;;;3.87;3.70;;;27.50;68.80;;;;;;10478589;28;20202;-79
2022/08/01 17:44:06;;;;;;;4.47;4.27;;;27.50;68.60;;;;;;10473196;28;20256;-80
2022/08/01 17:49:08;;;;;;;3.80;3.53;;;27.40;68.50;;;;;;10493076;28;20773;-79
2022/08/01 17:54:10;;;;;;;3.70;3.37;;;27.40;69.60;;;;;;10488584;28;20185;-79
2022/08/01 17:59:13;;;;;;;4.30;4.00;;;27.30;68.70;;;;;;10459473;28;20247;-79
2022/08/01 18:04:15;;;;;;;3.90;3.70;;;27.20;68.70;;;;;;10486830;28;20239;-79
2022/08/01 18:09:18;;;;;;;2.73;2.63;;;27.20;69.70;;;;;;10494046;28;20228;-80
2022/08/01 18:14:21;;;;;;;3.93;3.73;;;27.10;69.40;;;;;;10489637;28;20772;-80
2022/08/01 18:19:23;;;;;;;3.87;3.67;;;27.00;69.80;;;;;;10510632;28;20231;-79
2022/08/01 18:24:25;;;;;;;3.80;3.60;;;26.90;70.70;;;;;;10505147;28;20220;-80
2022/08/01 18:29:29;;;;;;;3.90;3.70;;;26.90;70.30;;;;;;10494267;28;20254;-80
2022/08/01 18:34:31;;;;;;;4.17;3.87;;;26.80;70.50;;;;;;10485649;28;20732;-80
2022/08/01 18:39:33;;;;;;;4.27;3.87;;;26.80;71.60;;;;;;10471873;28;20233;-79
2022/08/01 18:44:37;;;;;;;4.37;4.17;;;26.70;72.00;;;;;;10484506;28;20279;-79
2022/08/01 18:49:39;;;;;;;3.33;3.23;;;26.60;74.00;;;;;;10488345;28;20235;-79
2022/08/01 18:54:41;;;;;;;2.63;2.40;;;26.60;74.50;;;;;;10487721;28;20793;-79
2022/08/01 18:59:45;;;;;;;5.73;3.47;;;26.50;73.10;;;;;;10491439;28;20258;-78
2022/08/01 19:04:47;;;;;;;3.63;3.47;;;26.40;73.90;;;;;;10519419;22;20228;-84
2022/08/01 19:09:49;;;;;;;3.80;3.60;;;26.40;74.70;;;;;;10523071;28;20263;-82
2022/08/01 19:14:53;;;;;;;3.10;3.00;;;26.40;73.60;;;;;;10540690;28;20230;-82
2022/08/01 19:19:58;;;;;;;4.03;3.83;;;26.30;74.50;;;;;;10495323;28;20212;-82
2022/08/01 19:25:00;;;;;;;3.70;3.50;;;26.20;78.30;;;;;;10497622;28;20225;-82
2022/08/01 19:30:05;;;;;;;3.50;3.40;;;26.20;79.00;;;;;;10514777;28;20232;-82
2022/08/01 19:35:10;;;;;;;4.07;3.77;;;26.10;81.80;;;;;;10542596;28;20219;-82
2022/08/01 19:40:13;;;;;;;3.70;3.50;;;26.00;81.60;;;;;;10513721;28;20208;-82
2022/08/01 19:45:17;;;;;;;4.53;4.23;;;26.00;80.60;;;;;;10548158;28;20646;-82
2022/08/01 19:50:19;;;;;;;4.30;4.00;;;25.90;77.40;;;;;;10549943;28;20275;-82
2022/08/01 19:55:22;;;;;;;4.40;4.00;;;25.90;83.30;;;;;;10501790;28;20223;-82
2022/08/01 20:00:26;;;;;;;3.57;3.37;;;25.90;79.20;;;;;;10522179;28;20203;-82
2022/08/01 20:05:28;;;;;;;4.20;4.00;;;25.90;78.20;;;;;;10523107;28;20241;-82
2022/08/01 20:10:32;;;;;;;4.30;4.10;;;25.80;84.90;;;;;;10537711;28;20204;-82
2022/08/01 20:15:35;;;;;;;4.60;4.40;;;25.60;87.50;;;;;;10515460;28;20245;-84
2022/08/01 20:20:38;;;;;;;3.90;3.70;;;25.40;88.50;;;;;;10525744;28;20195;-84
2022/08/01 20:25:42;;;;;;;4.93;4.57;;;25.20;88.90;;;;;;10518254;28;20227;-84
2022/08/01 20:30:46;;;;;;;3.90;3.70;;;25.00;89.80;;;;;;10501359;28;20703;-82
2022/08/01 20:35:51;;;;;;;5.50;3.50;;;24.80;89.70;;;;;;10512953;28;20243;-82
2022/08/01 20:40:53;;;;;;;3.90;3.70;;;24.70;89.40;;;;;;10555683;28;20640;-82
2022/08/01 20:45:57;;;;;;;4.30;4.00;;;24.60;89.70;;;;;;10545291;28;20715;-81
2022/08/01 20:51:16;;;;;;;4.50;4.20;;;24.50;90.10;;;;;;10506515;28;20726;-82
2022/08/01 20:56:27;;;;;;;4.30;4.10;;;24.50;90.70;;;;;;10530087;28;20273;-84
2022/08/01 21:01:34;;;;;;;4.37;4.13;;;24.50;90.90;;;;;;10509438;28;20195;-83
2022/08/01 21:06:41;;;;;;;4.57;4.20;;;24.50;90.90;;;;;;10526410;28;20277;-82
2022/08/01 21:11:49;;;;;;;5.00;4.53;;;24.50;91.40;;;;;;10544543;28;20532;-81
2022/08/01 21:16:59;;;;;;;4.70;4.30;;;24.50;91.10;;;;;;10514806;28;21370;-82
2022/08/01 21:22:04;;;;;;;7.00;4.60;;;24.50;91.10;;;;;;10509163;28;20251;-81
2022/08/01 21:27:07;;;;;;;4.83;4.53;;;24.40;91.20;;;;;;10538955;28;20220;-81
2022/08/01 21:32:12;;;;;;;5.43;4.83;;;24.40;91.30;;;;;;10531643;28;20200;-82
2022/08/01 21:37:16;;;;;;;4.53;4.33;;;24.40;90.90;;;;;;10496210;28;20228;-81
2022/08/01 21:42:18;;;;;;;4.40;4.10;;;24.20;91.00;;;;;;10526901;28;20222;-81
2022/08/01 21:47:22;;;;;;;4.40;4.13;;;24.00;91.10;;;;;;10493758;28;20263;-82
2022/08/01 21:52:25;;;;;;;5.10;4.57;;;23.90;91.60;;;;;;10516899;28;20191;-82
2022/08/01 21:57:41;;;;;;;5.03;4.57;;;23.70;92.80;;;;;;10522535;28;20659;-82
2022/08/01 22:02:50;;;;;;;4.90;4.50;;;23.60;94.00;;;;;;10496717;28;20196;-81
2022/08/01 22:07:58;;;;;;;4.37;4.17;;;23.40;94.50;;;;;;10509013;28;20580;-81
2022/08/01 22:13:00;;;;;;;4.90;4.70;;;23.10;95.20;;;;;;10521682;28;20227;-82
2022/08/01 22:18:05;;;;;;;5.20;5.00;;;23.00;95.50;;;;;;10500891;28;20216;-82
2022/08/01 22:23:07;;;;;;;4.80;4.40;;;23.00;94.70;;;;;;10544569;28;20222;-81
2022/08/01 22:28:10;;;;;;;4.57;4.37;;;22.90;94.70;;;;;;10522541;28;20219;-82
2022/08/01 22:33:14;;;;;;;4.10;3.90;;;22.80;94.60;;;;;;10526739;28;20216;-81
2022/08/01 22:38:18;;;;;;;4.63;4.43;;;22.80;94.60;;;;;;10518385;28;20220;-82
2022/08/01 22:43:30;;;;;;;4.47;4.27;;;22.70;94.10;;;;;;10529531;28;20246;-82
2022/08/01 22:48:41;;;;;;;5.50;5.20;;;22.70;93.80;;;;;;10518737;28;20700;-82
2022/08/01 22:53:53;;;;;;;5.20;4.90;;;22.70;93.40;;;;;;10528130;28;20220;-82
2022/08/01 22:59:00;;;;;;;4.57;4.37;;;22.60;93.80;;;;;;10506103;28;20223;-82
2022/08/01 23:04:05;;;;;;;4.30;4.10;;;22.50;93.70;;;;;;10508552;28;20209;-81
2022/08/01 23:09:09;;;;;;;4.40;4.20;;;22.50;93.60;;;;;;10547609;28;20238;-81
2022/08/01 23:14:11;;;;;;;4.83;4.43;;;22.40;93.90;;;;;;10528099;28;20188;-81
2022/08/01 23:19:16;;;;;;;4.20;4.10;;;22.50;94.30;;;;;;10538832;28;20220;-81
2022/08/01 23:24:19;;;;;;;6.73;6.33;;;22.50;94.30;;;;;;10523590;28;20220;-81
2022/08/01 23:29:23;;;;;;;4.80;4.60;;;22.60;94.20;;;;;;10523699;28;20299;-82
2022/08/01 23:34:27;;;;;;;4.40;4.10;;;22.60;94.40;;;;;;10526198;28;20189;-82
2022/08/01 23:39:29;;;;;;;4.50;4.20;;;22.60;93.80;;;;;;10523245;28;20211;-82
2022/08/01 23:44:31;;;;;;;4.07;3.97;;;22.50;93.90;;;;;;10527603;28;20225;-82
2022/08/01 23:49:35;;;;;;;4.03;3.83;;;22.50;94.10;;;;;;10545976;28;20256;-82
2022/08/01 23:54:37;;;;;;;4.70;4.50;;;22.40;94.00;;;;;;10549422;28;20214;-82
2022/08/01 23:59:39;;;;;;;4.50;4.20;;;22.30;94.40;;;;;;10531170;28;20220;-81
